createdAt,value
2019-02-20T00:02:15.171Z,9.80
2019-02-20T00:04:44.669Z,7.90
2019-02-20T00:07:14.093Z,5.80
2019-02-20T00:09:43.409Z,12.13
2019-02-20T00:12:12.722Z,10.77
2019-02-20T00:14:41.915Z,7.37
2019-02-20T00:17:11.092Z,7.57
2019-02-20T00:19:40.266Z,9.27
2019-02-20T00:22:09.557Z,9.33
2019-02-20T00:24:38.844Z,11.17
2019-02-20T00:27:08.102Z,6.97
2019-02-20T00:29:37.335Z,11.87
2019-02-20T00:32:06.591Z,10.80
2019-02-20T00:34:35.733Z,10.70
2019-02-20T00:37:04.995Z,9.80
2019-02-20T00:39:34.134Z,8.77
2019-02-20T00:42:03.433Z,6.97
2019-02-20T00:44:50.133Z,11.63
2019-02-20T00:47:41.436Z,11.43
2019-02-20T00:50:11.567Z,9.00
2019-02-20T00:52:50.134Z,7.70
2019-02-20T00:55:19.740Z,13.63
2019-02-20T00:57:49.243Z,9.53
2019-02-20T01:00:18.731Z,10.70
2019-02-20T01:02:47.917Z,11.73
2019-02-20T01:05:17.153Z,12.10
2019-02-20T01:07:46.308Z,8.87
2019-02-20T01:10:15.564Z,9.40
2019-02-20T01:12:44.811Z,9.30
2019-02-20T01:15:13.988Z,12.07
2019-02-20T01:17:43.201Z,8.80
2019-02-20T01:20:12.569Z,12.90
2019-02-20T01:22:41.749Z,8.20
2019-02-20T01:25:11.019Z,9.37
2019-02-20T01:27:40.212Z,9.30
2019-02-20T01:30:09.884Z,11.90
2019-02-20T01:32:39.195Z,11.50
2019-02-20T01:35:08.760Z,10.50
2019-02-20T01:37:37.941Z,11.83
2019-02-20T01:40:07.288Z,7.53
2019-02-20T01:42:36.465Z,12.20
2019-02-20T01:45:05.983Z,15.20
2019-02-20T01:47:35.236Z,9.73
2019-02-20T01:50:04.593Z,13.03
2019-02-20T01:52:33.988Z,12.87
2019-02-20T01:55:03.223Z,18.53
2019-02-20T01:57:32.411Z,14.10
2019-02-20T02:00:01.791Z,12.00
2019-02-20T02:02:30.999Z,12.73
2019-02-20T02:05:00.392Z,12.87
2019-02-20T02:07:29.520Z,14.03
2019-02-20T02:09:58.737Z,11.17
2019-02-20T02:12:27.896Z,11.13
2019-02-20T02:14:57.049Z,14.27
2019-02-20T02:17:26.219Z,12.40
2019-02-20T02:19:55.421Z,15.13
2019-02-20T02:22:24.757Z,11.00
2019-02-20T02:24:53.926Z,11.37
2019-02-20T02:27:23.126Z,9.23
2019-02-20T02:29:52.310Z,12.90
2019-02-20T02:32:21.540Z,9.03
2019-02-20T02:34:50.990Z,12.57
2019-02-20T02:37:20.156Z,13.10
2019-02-20T02:39:49.331Z,9.97
2019-02-20T02:42:18.533Z,9.60
2019-02-20T02:44:47.728Z,11.50
2019-02-20T02:47:16.885Z,10.97
2019-02-20T02:49:46.300Z,12.77
2019-02-20T02:52:15.427Z,14.40
2019-02-20T02:54:44.756Z,10.70
2019-02-20T02:57:13.888Z,9.67
2019-02-20T02:59:43.071Z,10.17
2019-02-20T03:02:12.280Z,9.97
2019-02-20T03:04:41.462Z,13.20
2019-02-20T03:07:10.673Z,14.80
2019-02-20T03:09:39.905Z,11.53
2019-02-20T03:12:09.155Z,11.03
2019-02-20T03:14:38.404Z,9.87
2019-02-20T03:17:07.644Z,13.03
2019-02-20T03:19:36.796Z,11.20
2019-02-20T03:22:06.039Z,14.53
2019-02-20T03:24:35.284Z,11.47
2019-02-20T03:27:04.536Z,8.03
2019-02-20T03:29:33.704Z,10.77
2019-02-20T03:32:02.977Z,11.17
2019-02-20T03:34:32.143Z,14.47
2019-02-20T03:37:01.466Z,12.67
2019-02-20T03:39:30.695Z,13.07
2019-02-20T03:42:00.187Z,12.80
2019-02-20T03:44:29.340Z,13.27
2019-02-20T03:46:58.599Z,8.50
2019-02-20T03:49:27.843Z,10.13
2019-02-20T03:51:57.019Z,10.20
2019-02-20T03:54:26.226Z,8.53
2019-02-20T03:56:55.425Z,11.53
2019-02-20T03:59:24.586Z,13.50
2019-02-20T04:01:53.793Z,10.87
2019-02-20T04:04:23.001Z,10.90
2019-02-20T04:06:52.199Z,12.83
2019-02-20T04:09:21.425Z,14.23
2019-02-20T04:11:50.614Z,14.00
2019-02-20T04:14:19.796Z,11.30
2019-02-20T04:16:49.041Z,13.07
2019-02-20T04:19:18.204Z,14.47
2019-02-20T04:21:47.401Z,13.20
2019-02-20T04:24:17.871Z,15.43
2019-02-20T04:26:47.068Z,8.67
2019-02-20T04:29:16.223Z,8.90
2019-02-20T04:31:45.408Z,8.30
2019-02-20T04:34:14.561Z,9.93
2019-02-20T04:36:43.749Z,12.97
2019-02-20T04:39:12.926Z,15.37
2019-02-20T04:41:42.151Z,14.77
2019-02-20T04:44:11.345Z,13.00
2019-02-20T04:46:40.587Z,13.83
2019-02-20T04:49:09.868Z,12.87
2019-02-20T04:51:39.155Z,11.67
2019-02-20T04:54:13.339Z,15.00
2019-02-20T04:56:39.346Z,13.30
2019-02-20T04:59:08.625Z,13.67
2019-02-20T05:01:37.928Z,14.77
2019-02-20T05:04:07.094Z,12.20
2019-02-20T05:06:36.273Z,14.23
2019-02-20T05:09:06.076Z,9.10
2019-02-20T05:11:35.258Z,13.70
2019-02-20T05:14:04.519Z,13.10
2019-02-20T05:16:33.680Z,10.73
2019-02-20T05:19:02.923Z,12.37
2019-02-20T05:21:32.099Z,14.73
2019-02-20T05:24:01.276Z,18.63
2019-02-20T05:26:30.442Z,16.60
2019-02-20T05:28:59.626Z,17.33
2019-02-20T05:31:28.793Z,17.57
2019-02-20T05:33:57.970Z,18.10
2019-02-20T05:36:27.165Z,15.17
2019-02-20T05:38:56.352Z,17.30
2019-02-20T05:41:25.592Z,17.73
2019-02-20T05:43:54.767Z,16.50
2019-02-20T05:46:23.937Z,11.40
2019-02-20T05:48:53.225Z,11.57
2019-02-20T05:51:22.428Z,11.93
2019-02-20T05:53:51.942Z,19.87
2019-02-20T05:56:21.237Z,17.23
2019-02-20T05:58:51.400Z,18.13
2019-02-20T06:01:20.720Z,17.67
2019-02-20T06:03:49.865Z,14.80
2019-02-20T06:06:19.101Z,14.57
2019-02-20T06:08:48.269Z,15.97
2019-02-20T06:11:17.526Z,16.30
2019-02-20T06:13:46.760Z,19.13
2019-02-20T06:16:15.957Z,21.93
2019-02-20T06:18:45.181Z,20.97
2019-02-20T06:21:16.334Z,19.80
2019-02-20T06:23:45.377Z,23.03
2019-02-20T06:26:14.550Z,18.67
2019-02-20T06:28:43.749Z,17.30
2019-02-20T06:31:13.059Z,18.50
2019-02-20T06:33:42.236Z,24.23
2019-02-20T06:36:11.488Z,19.60
2019-02-20T06:38:40.747Z,21.00
2019-02-20T06:41:09.944Z,14.00
2019-02-20T06:43:39.180Z,13.03
2019-02-20T06:46:08.412Z,18.93
2019-02-20T06:48:37.582Z,13.20
2019-02-20T06:51:06.824Z,18.07
2019-02-20T06:53:36.024Z,12.80
2019-02-20T06:56:05.251Z,18.97
2019-02-20T06:58:34.501Z,25.03
2019-02-20T07:01:03.645Z,22.50
2019-02-20T07:03:32.831Z,22.47
2019-02-20T07:06:21.314Z,23.23
2019-02-20T07:09:30.499Z,19.07
2019-02-20T07:12:44.617Z,23.30
2019-02-20T07:15:47.301Z,21.30
2019-02-20T07:18:40.618Z,22.87
2019-02-20T07:21:41.264Z,23.03
2019-02-20T07:24:41.526Z,23.77
2019-02-20T07:27:49.289Z,21.17
2019-02-20T07:30:18.469Z,24.93
2019-02-20T07:32:47.708Z,22.17
2019-02-20T07:35:16.981Z,18.37
2019-02-20T07:37:46.188Z,18.97
2019-02-20T07:40:15.333Z,14.20
2019-02-20T07:42:44.622Z,18.77
2019-02-20T07:45:15.696Z,22.57
2019-02-20T07:47:44.962Z,20.77
2019-02-20T07:50:16.688Z,21.20
2019-02-20T07:52:45.989Z,21.23
2019-02-20T07:55:15.254Z,13.77
2019-02-20T07:57:44.488Z,16.60
2019-02-20T08:00:14.608Z,19.23
2019-02-20T08:02:43.758Z,15.20
2019-02-20T08:05:13.102Z,19.13
2019-02-20T08:07:42.320Z,15.97
2019-02-20T08:10:12.214Z,16.33
2019-02-20T08:12:41.524Z,19.97
2019-02-20T08:15:12.669Z,27.03
2019-02-20T08:17:42.002Z,20.90
2019-02-20T08:20:11.853Z,22.00
2019-02-20T08:22:41.349Z,19.37
2019-02-20T08:25:10.700Z,21.00
2019-02-20T08:27:40.034Z,21.20
2019-02-20T08:30:12.468Z,16.33
2019-02-20T08:32:41.648Z,18.60
2019-02-20T08:35:11.447Z,20.97
2019-02-20T08:37:40.599Z,18.33
2019-02-20T08:40:12.212Z,24.97
2019-02-20T08:42:41.510Z,17.73
2019-02-20T08:45:11.167Z,23.83
2019-02-20T08:47:40.409Z,16.27
2019-02-20T08:50:10.431Z,24.07
2019-02-20T08:52:40.009Z,19.93
2019-02-20T08:55:09.417Z,27.93
2019-02-20T08:57:38.797Z,25.73
2019-02-20T09:00:10.658Z,22.23
2019-02-20T09:02:39.883Z,27.13
2019-02-20T09:05:09.260Z,23.33
2019-02-20T09:07:38.474Z,20.57
2019-02-20T09:10:08.335Z,24.73
2019-02-20T09:12:37.624Z,20.97
2019-02-20T09:15:07.356Z,22.63
2019-02-20T09:17:36.620Z,20.80
2019-02-20T09:20:06.631Z,25.97
2019-02-20T09:22:35.953Z,21.50
2019-02-20T09:25:05.721Z,24.70
2019-02-20T09:27:34.879Z,19.80
2019-02-20T09:30:04.271Z,25.57
2019-02-20T09:32:33.495Z,18.87
2019-02-20T09:35:02.788Z,21.67
2019-02-20T09:37:32.058Z,18.77
2019-02-20T09:40:01.224Z,23.17
2019-02-20T09:42:30.503Z,21.80
2019-02-20T09:44:59.664Z,20.00
2019-02-20T09:47:28.856Z,30.33
2019-02-20T09:49:58.004Z,28.33
2019-02-20T09:52:27.331Z,22.50
2019-02-20T09:54:56.480Z,22.53
2019-02-20T09:57:25.716Z,24.40
2019-02-20T09:59:54.924Z,24.80
2019-02-20T10:02:24.261Z,19.90
2019-02-20T10:04:53.492Z,20.80
2019-02-20T10:07:22.804Z,21.97
2019-02-20T10:09:52.023Z,17.17
2019-02-20T10:12:21.179Z,25.50
2019-02-20T10:14:50.459Z,21.93
2019-02-20T10:17:19.786Z,20.83
2019-02-20T10:19:49.060Z,24.67
2019-02-20T10:22:18.260Z,20.97
2019-02-20T10:24:47.507Z,17.20
2019-02-20T10:27:16.715Z,18.60
2019-02-20T10:29:45.935Z,21.27
2019-02-20T10:32:15.140Z,15.53
2019-02-20T10:34:44.404Z,18.70
2019-02-20T10:37:13.687Z,16.70
2019-02-20T10:39:42.886Z,14.60
2019-02-20T10:42:12.321Z,22.87
2019-02-20T10:44:41.729Z,20.07
2019-02-20T10:47:10.979Z,20.10
2019-02-20T10:49:40.182Z,23.10
2019-02-20T10:52:09.384Z,18.90
2019-02-20T10:54:38.586Z,16.30
2019-02-20T10:57:07.762Z,17.27
2019-02-20T10:59:37.081Z,13.27
2019-02-20T11:02:06.439Z,15.17
2019-02-20T11:04:35.613Z,15.53
2019-02-20T11:07:04.891Z,15.53
2019-02-20T11:09:34.168Z,19.33
2019-02-20T11:12:03.357Z,18.03
2019-02-20T11:14:32.623Z,17.63
2019-02-20T11:17:01.821Z,16.73
2019-02-20T11:19:31.065Z,10.97
2019-02-20T11:22:00.292Z,13.43
2019-02-20T11:24:29.472Z,11.10
2019-02-20T11:26:58.810Z,10.20
2019-02-20T11:29:28.070Z,8.17
2019-02-20T11:31:57.271Z,7.27
2019-02-20T11:34:26.525Z,6.93
2019-02-20T11:36:55.786Z,5.83
2019-02-20T11:39:24.954Z,5.97
2019-02-20T11:41:54.235Z,4.90
2019-02-20T11:44:23.425Z,5.67
2019-02-20T11:46:52.621Z,8.10
2019-02-20T11:49:21.903Z,7.20
2019-02-20T11:51:52.798Z,8.77
2019-02-20T11:54:22.038Z,6.43
2019-02-20T11:56:51.243Z,6.10
2019-02-20T11:59:20.390Z,7.27
2019-02-20T12:01:49.652Z,9.00
2019-02-20T12:04:18.945Z,7.90
2019-02-20T12:06:48.156Z,7.97
2019-02-20T12:09:17.352Z,7.27
2019-02-20T12:11:46.620Z,8.73
2019-02-20T12:14:15.840Z,9.53
2019-02-20T12:16:44.998Z,7.90
2019-02-20T12:19:14.303Z,9.30
2019-02-20T12:21:43.493Z,12.73
2019-02-20T12:24:12.728Z,11.40
2019-02-20T12:26:42.031Z,9.90
2019-02-20T12:29:11.398Z,8.33
2019-02-20T12:31:40.541Z,7.20
2019-02-20T12:34:09.788Z,6.50
2019-02-20T12:36:38.972Z,6.50
2019-02-20T12:39:08.184Z,7.83
2019-02-20T12:41:37.422Z,8.40
2019-02-20T12:44:06.707Z,8.77
2019-02-20T12:46:35.986Z,8.03
2019-02-20T12:49:05.211Z,8.27
2019-02-20T12:51:34.403Z,9.33
2019-02-20T12:54:03.604Z,7.67
2019-02-20T12:56:32.837Z,8.67
2019-02-20T12:59:07.631Z,7.53
2019-02-20T13:01:33.034Z,7.37
2019-02-20T13:04:02.338Z,10.37
2019-02-20T13:06:31.576Z,7.87
2019-02-20T13:09:00.888Z,8.63
2019-02-20T13:11:30.160Z,8.93
2019-02-20T13:13:59.405Z,7.00
2019-02-20T13:16:28.564Z,9.07
2019-02-20T13:18:59.304Z,7.83
2019-02-20T13:21:34.692Z,7.40
2019-02-20T13:24:03.929Z,9.37
2019-02-20T13:26:33.134Z,9.63
2019-02-20T13:29:02.369Z,8.53
2019-02-20T13:31:31.715Z,9.23
2019-02-20T13:34:01.041Z,8.30
2019-02-20T13:36:30.271Z,10.40
2019-02-20T13:38:59.551Z,10.83
2019-02-20T13:41:29.988Z,8.67
2019-02-20T13:43:59.263Z,8.40
2019-02-20T13:46:28.726Z,10.03
2019-02-20T13:48:57.978Z,10.13
2019-02-20T13:51:27.303Z,10.10
2019-02-20T13:53:56.592Z,8.80
2019-02-20T13:56:25.812Z,12.27
2019-02-20T13:58:55.277Z,12.03
2019-02-20T14:01:24.782Z,9.33
2019-02-20T14:03:54.099Z,10.00
2019-02-20T14:06:23.400Z,10.13
2019-02-20T14:08:52.861Z,9.27
2019-02-20T14:11:22.231Z,9.80
2019-02-20T14:13:51.589Z,9.23
2019-02-20T14:16:21.215Z,9.90
2019-02-20T14:18:51.381Z,10.10
2019-02-20T14:21:20.778Z,11.47
2019-02-20T14:23:50.805Z,8.63
2019-02-20T14:26:20.994Z,9.90
2019-02-20T14:28:50.292Z,9.67
2019-02-20T14:31:19.572Z,15.07
2019-02-20T14:33:48.870Z,9.60
2019-02-20T14:36:18.100Z,10.80
2019-02-20T14:38:47.839Z,10.80
2019-02-20T14:41:17.258Z,12.00
2019-02-20T14:43:46.672Z,11.87
2019-02-20T14:46:16.193Z,12.60
2019-02-20T14:48:47.323Z,10.13
2019-02-20T14:51:16.683Z,7.70
2019-02-20T14:53:46.449Z,9.40
2019-02-20T14:56:15.703Z,8.13
2019-02-20T14:58:44.940Z,6.43
2019-02-20T15:01:14.196Z,8.33
2019-02-20T15:03:43.485Z,7.30
2019-02-20T15:06:13.035Z,8.43
2019-02-20T15:08:42.575Z,8.23
2019-02-20T15:11:11.917Z,10.37
2019-02-20T15:13:41.184Z,8.33
2019-02-20T15:16:10.620Z,9.40
2019-02-20T15:18:40.362Z,8.73
2019-02-20T15:21:09.824Z,9.23
2019-02-20T15:23:39.137Z,7.93
2019-02-20T15:26:08.570Z,7.57
2019-02-20T15:28:37.998Z,8.17
2019-02-20T15:31:07.625Z,7.70
2019-02-20T15:33:36.966Z,6.90
2019-02-20T15:36:06.382Z,7.33
2019-02-20T15:38:35.689Z,8.67
2019-02-20T15:41:04.966Z,5.30
2019-02-20T15:43:34.149Z,7.53
2019-02-20T15:46:03.439Z,8.40
2019-02-20T15:48:32.717Z,5.27
2019-02-20T15:51:02.427Z,8.97
2019-02-20T15:53:31.826Z,7.97
2019-02-20T15:56:01.896Z,8.83
2019-02-20T15:58:31.286Z,9.47
2019-02-20T16:01:00.674Z,7.77
2019-02-20T16:03:29.973Z,7.33
2019-02-20T16:05:59.527Z,7.60
2019-02-20T16:08:28.850Z,10.00
2019-02-20T16:10:58.611Z,8.40
2019-02-20T16:13:28.295Z,5.87
2019-02-20T16:15:57.655Z,4.97
2019-02-20T16:18:26.891Z,10.47
2019-02-20T16:20:56.685Z,7.80
2019-02-20T16:23:26.120Z,10.30
2019-02-20T16:25:55.479Z,7.07
2019-02-20T16:28:33.406Z,6.97
2019-02-20T16:30:56.003Z,6.37
2019-02-20T16:33:25.268Z,6.13
2019-02-20T16:35:55.023Z,4.53
2019-02-20T16:38:24.357Z,4.57
2019-02-20T16:40:53.634Z,4.73
2019-02-20T16:43:23.008Z,4.67
2019-02-20T16:45:52.356Z,6.37
2019-02-20T16:48:21.745Z,5.43
2019-02-20T16:50:51.299Z,6.97
2019-02-20T16:53:20.874Z,6.80
2019-02-20T16:55:50.184Z,9.03
2019-02-20T16:58:19.940Z,7.17
2019-02-20T17:00:50.028Z,5.73
2019-02-20T17:03:19.518Z,11.00
2019-02-20T17:05:48.813Z,7.33
2019-02-20T17:08:18.160Z,7.30
2019-02-20T17:10:47.450Z,4.50
2019-02-20T17:13:17.229Z,5.10
2019-02-20T17:15:46.687Z,7.57
2019-02-20T17:18:16.024Z,7.20
2019-02-20T17:20:45.353Z,7.20
2019-02-20T17:23:15.462Z,5.23
2019-02-20T17:25:44.910Z,7.97
2019-02-20T17:28:15.014Z,8.83
2019-02-20T17:30:44.351Z,9.20
2019-02-20T17:33:13.665Z,11.83
2019-02-20T17:35:43.318Z,8.67
2019-02-20T17:38:12.767Z,8.03
2019-02-20T17:40:42.076Z,5.37
2019-02-20T17:43:11.927Z,14.47
2019-02-20T17:45:41.209Z,12.77
2019-02-20T17:48:10.493Z,11.40
2019-02-20T17:50:39.815Z,10.17
2019-02-20T17:53:09.095Z,8.63
2019-02-20T17:55:38.465Z,15.30
2019-02-20T17:58:14.883Z,8.80
2019-02-20T18:00:39.424Z,8.33
2019-02-20T18:03:08.818Z,13.67
2019-02-20T18:05:38.121Z,11.83
2019-02-20T18:08:07.382Z,12.87
2019-02-20T18:10:36.830Z,9.23
2019-02-20T18:13:06.112Z,14.80
2019-02-20T18:15:35.562Z,8.27
2019-02-20T18:18:04.888Z,8.30
2019-02-20T18:20:34.158Z,14.30
2019-02-20T18:23:03.586Z,18.73
2019-02-20T18:25:32.974Z,8.10
2019-02-20T18:28:02.274Z,12.80
2019-02-20T18:30:31.863Z,8.07
2019-02-20T18:33:01.164Z,12.67
2019-02-20T18:35:30.636Z,12.90
2019-02-20T18:38:00.015Z,11.07
2019-02-20T18:40:29.405Z,13.80
2019-02-20T18:42:59.004Z,9.63
2019-02-20T18:45:28.324Z,7.27
2019-02-20T18:47:57.721Z,7.53
2019-02-20T18:50:27.884Z,8.20
2019-02-20T18:52:57.334Z,13.83
2019-02-20T18:55:26.668Z,10.50
2019-02-20T18:57:56.011Z,11.13
2019-02-20T19:00:25.546Z,9.90
2019-02-20T19:02:54.762Z,10.77
2019-02-20T19:05:24.164Z,19.23
2019-02-20T19:07:53.578Z,19.63
2019-02-20T19:10:27.658Z,14.20
2019-02-20T19:13:46.647Z,13.37
2019-02-20T19:16:44.957Z,11.60
2019-02-20T19:19:51.111Z,13.17
2019-02-20T19:22:59.928Z,10.40
2019-02-20T19:26:09.428Z,9.03
2019-02-20T19:28:55.660Z,14.50
2019-02-20T19:32:14.883Z,11.27
2019-02-20T19:35:15.292Z,13.60
2019-02-20T19:38:18.085Z,15.97
2019-02-20T19:41:37.371Z,12.47
2019-02-20T19:44:48.147Z,12.17
2019-02-20T19:47:50.329Z,10.37
2019-02-20T19:50:43.413Z,13.30
2019-02-20T19:53:37.468Z,9.83
2019-02-20T19:56:25.635Z,11.57
2019-02-20T19:59:40.602Z,10.50
2019-02-20T20:02:56.659Z,14.50
2019-02-20T20:06:09.893Z,11.33
2019-02-20T20:08:53.848Z,16.30
2019-02-20T20:11:45.092Z,12.10
2019-02-20T20:14:34.840Z,15.33
2019-02-20T20:17:36.569Z,19.20
2019-02-20T20:20:27.440Z,12.83
2019-02-20T20:23:34.228Z,14.17
2019-02-20T20:26:44.536Z,14.83
2019-02-20T20:30:08.010Z,9.43
2019-02-20T20:33:36.304Z,16.47
2019-02-20T20:37:00.800Z,13.20
2019-02-20T20:39:57.728Z,13.40
2019-02-20T20:43:08.053Z,13.03
2019-02-20T20:46:12.123Z,15.37
2019-02-20T20:49:21.358Z,11.40
2019-02-20T20:52:44.015Z,14.57
2019-02-20T20:55:44.017Z,14.63
2019-02-20T20:58:37.862Z,17.70
2019-02-20T21:01:37.832Z,8.97
2019-02-20T21:04:45.208Z,7.53
2019-02-20T21:07:45.298Z,9.63
2019-02-20T21:10:54.694Z,8.23
2019-02-20T21:14:14.166Z,16.37
2019-02-20T21:17:27.689Z,12.10
2019-02-20T21:20:36.213Z,15.77
2019-02-20T21:23:58.512Z,7.43
2019-02-20T21:26:58.935Z,8.07
2019-02-20T21:30:08.547Z,13.00
2019-02-20T21:32:51.243Z,10.57
2019-02-20T21:36:10.410Z,16.23
2019-02-20T21:39:12.546Z,12.03
2019-02-20T21:41:59.545Z,15.47
2019-02-20T21:45:15.866Z,11.70
2019-02-20T21:48:22.415Z,16.93
2019-02-20T21:51:24.950Z,12.30
2019-02-20T21:54:23.015Z,20.23
2019-02-20T21:57:27.648Z,13.53
2019-02-20T22:00:42.353Z,17.13
2019-02-20T22:03:48.240Z,12.90
2019-02-20T22:06:58.548Z,13.40
2019-02-20T22:09:57.939Z,13.20
2019-02-20T22:13:18.796Z,17.67
2019-02-20T22:16:35.173Z,16.40
2019-02-20T22:19:28.135Z,17.67
2019-02-20T22:22:09.078Z,17.03
2019-02-20T22:25:03.705Z,17.47
2019-02-20T22:27:57.367Z,9.93
2019-02-20T22:31:05.518Z,10.77
2019-02-20T22:33:43.080Z,15.90
2019-02-20T22:36:40.201Z,9.80
2019-02-20T22:39:30.017Z,14.17
2019-02-20T22:42:27.256Z,16.13
2019-02-20T22:45:36.362Z,17.63
2019-02-20T22:48:49.664Z,15.97
2019-02-20T22:51:55.519Z,17.47
2019-02-20T22:55:02.695Z,17.17
2019-02-20T22:57:53.007Z,20.13
2019-02-20T23:01:17.240Z,10.67
2019-02-20T23:03:55.062Z,10.50
2019-02-20T23:07:06.275Z,18.60
2019-02-20T23:09:49.887Z,15.07
2019-02-20T23:12:35.700Z,16.63
2019-02-20T23:15:06.657Z,12.03
2019-02-20T23:17:36.023Z,20.97
2019-02-20T23:20:05.374Z,17.90
2019-02-20T23:22:34.682Z,19.43
2019-02-20T23:25:03.986Z,14.50
2019-02-20T23:27:33.333Z,18.57
2019-02-20T23:30:12.195Z,17.53
2019-02-20T23:32:33.776Z,17.73
2019-02-20T23:35:03.247Z,11.93
2019-02-20T23:37:32.649Z,13.77
2019-02-20T23:40:01.870Z,13.90
2019-02-20T23:42:31.199Z,14.63
2019-02-20T23:45:00.407Z,21.97
2019-02-20T23:47:29.723Z,19.93
2019-02-20T23:49:59.043Z,15.67
2019-02-20T23:52:28.376Z,12.43
2019-02-20T23:54:57.698Z,18.70
2019-02-20T23:57:26.878Z,15.73
2019-02-20T23:59:56.176Z,13.97
